createdAt,value
2019-02-15T00:01:25.326Z,38.60
2019-02-15T00:03:58.787Z,37.80
2019-02-15T00:06:32.184Z,38.00
2019-02-15T00:09:06.587Z,38.20
2019-02-15T00:11:39.845Z,38.60
2019-02-15T00:14:13.478Z,38.70
2019-02-15T00:16:46.738Z,37.80
2019-02-15T00:19:24.615Z,38.00
2019-02-15T00:21:57.850Z,38.20
2019-02-15T00:24:31.379Z,38.20
2019-02-15T00:27:05.754Z,38.20
2019-02-15T00:29:41.920Z,38.10
2019-02-15T00:32:15.640Z,38.30
2019-02-15T00:34:48.940Z,38.40
2019-02-15T00:37:22.367Z,38.50
2019-02-15T00:39:55.617Z,38.60
2019-02-15T00:42:30.493Z,38.60
2019-02-15T00:45:03.751Z,38.70
2019-02-15T00:47:41.101Z,38.50
2019-02-15T00:50:15.750Z,38.30
2019-02-15T00:52:56.701Z,38.20
2019-02-15T00:55:31.412Z,37.80
2019-02-15T00:58:18.346Z,37.80
2019-02-15T01:00:53.565Z,37.80
2019-02-15T01:03:37.761Z,37.70
2019-02-15T01:06:15.308Z,37.60
2019-02-15T01:08:56.094Z,37.80
2019-02-15T01:11:30.630Z,37.70
2019-02-15T01:14:04.138Z,37.60
2019-02-15T01:16:37.253Z,37.70
2019-02-15T01:19:11.348Z,37.70
2019-02-15T01:21:44.135Z,38.00
2019-02-15T01:24:17.735Z,38.30
2019-02-15T01:26:52.230Z,38.60
2019-02-15T01:29:29.189Z,38.80
2019-02-15T01:32:05.886Z,38.80
2019-02-15T01:34:56.510Z,38.80
2019-02-15T01:37:33.554Z,38.90
2019-02-15T01:40:13.918Z,39.00
2019-02-15T01:42:50.914Z,39.20
2019-02-15T01:45:24.995Z,39.20
2019-02-15T01:47:57.643Z,39.20
2019-02-15T01:50:30.440Z,39.20
2019-02-15T01:53:03.201Z,39.20
2019-02-15T01:55:36.290Z,39.40
2019-02-15T01:58:09.381Z,39.40
2019-02-15T02:00:42.930Z,39.60
2019-02-15T02:03:15.955Z,39.60
2019-02-15T02:05:49.162Z,39.60
2019-02-15T02:08:23.438Z,39.80
2019-02-15T02:10:57.071Z,40.00
2019-02-15T02:13:29.960Z,40.20
2019-02-15T02:16:03.299Z,40.20
2019-02-15T02:18:36.983Z,40.60
2019-02-15T02:21:09.957Z,40.90
2019-02-15T02:23:43.375Z,41.00
2019-02-15T02:26:16.739Z,41.40
2019-02-15T02:28:50.163Z,41.70
2019-02-15T02:31:23.335Z,41.90
2019-02-15T02:33:57.635Z,42.00
2019-02-15T02:36:52.853Z,42.00
2019-02-15T02:39:26.128Z,41.80
2019-02-15T02:41:59.233Z,41.20
2019-02-15T02:44:32.539Z,40.10
2019-02-15T02:47:05.621Z,38.70
2019-02-15T02:49:39.259Z,37.60
2019-02-15T02:52:11.755Z,36.60
2019-02-15T02:54:44.875Z,35.90
2019-02-15T02:57:18.167Z,35.30
2019-02-15T02:59:51.653Z,34.90
2019-02-15T03:02:24.986Z,34.60
2019-02-15T03:04:58.665Z,34.30
2019-02-15T03:07:32.189Z,34.00
2019-02-15T03:10:05.848Z,33.90
2019-02-15T03:12:38.443Z,33.60
2019-02-15T03:15:11.231Z,33.40
2019-02-15T03:17:43.919Z,33.00
2019-02-15T03:20:16.955Z,32.70
2019-02-15T03:22:49.686Z,32.30
2019-02-15T03:25:22.662Z,32.00
2019-02-15T03:27:55.467Z,31.70
2019-02-15T03:30:28.307Z,31.50
2019-02-15T03:33:01.008Z,31.30
2019-02-15T03:35:33.795Z,31.10
2019-02-15T03:38:11.041Z,30.80
2019-02-15T03:40:43.856Z,30.60
2019-02-15T03:43:16.495Z,30.50
2019-02-15T03:45:50.621Z,30.40
2019-02-15T03:48:23.446Z,30.30
2019-02-15T03:50:56.226Z,30.20
2019-02-15T03:53:28.990Z,30.10
2019-02-15T03:56:02.991Z,30.00
2019-02-15T03:58:35.659Z,29.90
2019-02-15T04:01:08.562Z,29.80
2019-02-15T04:03:41.361Z,29.70
2019-02-15T04:09:04.642Z,29.60
2019-02-15T04:11:37.328Z,29.40
2019-02-15T04:14:11.330Z,29.30
2019-02-15T04:16:44.305Z,29.20
2019-02-15T04:19:17.083Z,29.10
2019-02-15T04:21:50.083Z,29.10
2019-02-15T04:24:22.885Z,29.00
2019-02-15T04:26:55.871Z,28.90
2019-02-15T04:29:29.282Z,28.70
2019-02-15T04:32:02.343Z,28.60
2019-02-15T04:34:35.018Z,28.40
2019-02-15T04:37:08.058Z,28.30
2019-02-15T04:39:41.965Z,28.20
2019-02-15T04:42:14.868Z,28.10
2019-02-15T04:44:47.471Z,28.00
2019-02-15T04:47:20.616Z,27.80
2019-02-15T04:49:53.372Z,27.80
2019-02-15T04:52:26.920Z,27.70
2019-02-15T04:54:59.751Z,27.70
2019-02-15T04:57:32.710Z,27.70
2019-02-15T05:00:05.512Z,27.60
2019-02-15T05:02:38.486Z,27.50
2019-02-15T05:05:11.273Z,27.30
2019-02-15T05:07:45.253Z,27.20
2019-02-15T05:10:17.955Z,27.10
2019-02-15T05:12:50.815Z,27.00
2019-02-15T05:15:23.644Z,27.00
2019-02-15T05:17:56.935Z,26.80
2019-02-15T05:20:29.604Z,26.80
2019-02-15T05:23:02.143Z,26.70
2019-02-15T05:25:35.751Z,26.70
2019-02-15T05:28:09.010Z,26.70
2019-02-15T05:30:43.261Z,26.70
2019-02-15T05:33:16.108Z,26.60
2019-02-15T05:35:48.984Z,26.50
2019-02-15T05:38:21.781Z,26.40
2019-02-15T05:40:55.030Z,26.30
2019-02-15T05:43:27.648Z,26.20
2019-02-15T05:46:00.479Z,26.10
2019-02-15T05:48:33.312Z,26.10
2019-02-15T05:51:06.274Z,26.00
2019-02-15T05:53:39.080Z,25.90
2019-02-15T05:56:12.072Z,25.80
2019-02-15T05:58:44.756Z,25.70
2019-02-15T06:01:17.843Z,25.60
2019-02-15T06:03:50.620Z,25.50
2019-02-15T06:06:23.611Z,25.40
2019-02-15T06:08:56.423Z,25.30
2019-02-15T06:11:29.241Z,25.30
2019-02-15T06:14:01.976Z,25.20
2019-02-15T06:16:34.759Z,25.20
2019-02-15T06:19:07.719Z,25.10
2019-02-15T06:21:40.386Z,25.10
2019-02-15T06:24:13.144Z,25.00
2019-02-15T06:26:45.869Z,24.90
2019-02-15T06:29:18.891Z,24.80
2019-02-15T06:31:51.858Z,24.70
2019-02-15T06:34:24.516Z,24.70
2019-02-15T06:36:58.022Z,24.70
2019-02-15T06:39:30.797Z,24.60
2019-02-15T06:42:03.730Z,24.50
2019-02-15T06:44:37.170Z,24.40
2019-02-15T06:47:09.978Z,24.30
2019-02-15T06:49:42.934Z,24.30
2019-02-15T06:52:15.787Z,24.20
2019-02-15T06:54:48.609Z,24.10
2019-02-15T06:57:21.509Z,24.10
2019-02-15T06:59:55.475Z,24.00
2019-02-15T07:02:30.789Z,23.90
2019-02-15T07:05:13.935Z,23.90
2019-02-15T07:07:47.214Z,23.80
2019-02-15T07:10:20.034Z,23.70
2019-02-15T07:12:52.958Z,23.70
2019-02-15T07:15:33.768Z,23.60
2019-02-15T07:18:02.525Z,23.50
2019-02-15T07:20:36.600Z,23.40
2019-02-15T07:23:09.503Z,23.40
2019-02-15T07:25:42.353Z,23.30
2019-02-15T07:28:15.250Z,23.30
2019-02-15T07:30:48.234Z,23.20
2019-02-15T07:33:22.258Z,23.20
2019-02-15T07:35:55.068Z,23.10
2019-02-15T07:38:27.836Z,23.10
2019-02-15T07:41:02.333Z,23.10
2019-02-15T07:43:35.028Z,23.10
2019-02-15T07:46:07.713Z,23.00
2019-02-15T07:48:40.788Z,23.00
2019-02-15T07:51:13.270Z,23.00
2019-02-15T07:53:50.288Z,23.00
2019-02-15T07:56:22.893Z,22.90
2019-02-15T07:58:56.013Z,22.90
2019-02-15T08:01:28.794Z,22.90
2019-02-15T08:04:02.851Z,22.80
2019-02-15T08:06:35.609Z,22.70
2019-02-15T08:09:10.754Z,22.70
2019-02-15T08:11:43.513Z,22.70
2019-02-15T08:14:18.232Z,22.70
2019-02-15T08:16:52.123Z,22.60
2019-02-15T08:19:25.123Z,22.60
2019-02-15T08:21:57.930Z,22.50
2019-02-15T08:24:30.975Z,22.50
2019-02-15T08:27:03.670Z,22.40
2019-02-15T08:29:37.340Z,22.40
2019-02-15T08:32:11.254Z,22.40
2019-02-15T08:34:44.946Z,22.30
2019-02-15T08:37:17.988Z,22.30
2019-02-15T08:40:02.473Z,22.30
2019-02-15T08:42:36.380Z,22.20
2019-02-15T08:45:13.566Z,22.20
2019-02-15T08:47:46.517Z,22.20
2019-02-15T08:50:20.769Z,22.10
2019-02-15T08:52:55.134Z,22.10
2019-02-15T08:55:28.150Z,22.10
2019-02-15T08:58:01.029Z,22.20
2019-02-15T09:00:33.905Z,22.20
2019-02-15T09:03:06.764Z,22.20
2019-02-15T09:05:39.680Z,22.10
2019-02-15T09:08:12.504Z,22.10
2019-02-15T09:10:45.355Z,22.00
2019-02-15T09:13:18.142Z,22.00
2019-02-15T09:15:51.090Z,22.00
2019-02-15T09:18:23.912Z,21.90
2019-02-15T09:20:56.877Z,21.90
2019-02-15T09:23:30.775Z,21.80
2019-02-15T09:26:03.725Z,21.80
2019-02-15T09:28:37.858Z,21.80
2019-02-15T09:31:10.523Z,21.70
2019-02-15T09:33:43.360Z,21.70
2019-02-15T09:36:16.300Z,21.70
2019-02-15T09:38:49.005Z,21.70
2019-02-15T09:41:21.982Z,21.60
2019-02-15T09:43:54.793Z,21.60
2019-02-15T09:46:27.766Z,21.50
2019-02-15T09:49:00.570Z,21.50
2019-02-15T09:51:33.235Z,21.40
2019-02-15T09:54:06.193Z,21.40
2019-02-15T09:56:38.753Z,21.40
2019-02-15T09:59:11.476Z,21.40
2019-02-15T10:01:44.508Z,21.30
2019-02-15T10:04:17.377Z,21.30
2019-02-15T10:06:50.404Z,21.30
2019-02-15T10:09:23.026Z,21.20
2019-02-15T10:11:57.074Z,21.20
2019-02-15T10:14:29.702Z,21.20
2019-02-15T10:17:03.251Z,21.20
2019-02-15T10:19:36.004Z,21.20
2019-02-15T10:22:08.968Z,21.20
2019-02-15T10:24:41.758Z,21.10
2019-02-15T10:27:14.829Z,21.10
2019-02-15T10:29:47.663Z,21.10
2019-02-15T10:32:20.251Z,21.10
2019-02-15T10:34:53.132Z,21.00
2019-02-15T10:37:26.188Z,21.00
2019-02-15T10:39:58.863Z,21.00
2019-02-15T10:42:31.846Z,21.00
2019-02-15T10:45:04.364Z,20.90
2019-02-15T10:47:37.117Z,20.90
2019-02-15T10:50:11.632Z,20.90
2019-02-15T10:52:44.576Z,20.90
2019-02-15T10:55:17.249Z,20.90
2019-02-15T10:57:50.781Z,20.90
2019-02-15T11:00:23.973Z,20.90
2019-02-15T11:02:57.479Z,20.80
2019-02-15T11:05:30.146Z,20.80
2019-02-15T11:08:03.058Z,20.80
2019-02-15T11:10:35.899Z,20.70
2019-02-15T11:13:08.707Z,20.70
2019-02-15T11:15:41.663Z,20.70
2019-02-15T11:18:14.568Z,20.70
2019-02-15T11:20:47.247Z,20.60
2019-02-15T11:23:20.371Z,20.60
2019-02-15T11:25:53.140Z,20.60
2019-02-15T11:28:26.853Z,20.50
2019-02-15T11:30:59.733Z,20.50
2019-02-15T11:33:32.779Z,20.50
2019-02-15T11:36:05.592Z,20.50
2019-02-15T11:38:38.256Z,20.50
2019-02-15T11:41:11.488Z,20.50
2019-02-15T11:43:44.192Z,20.50
2019-02-15T11:46:17.025Z,20.40
2019-02-15T11:48:49.706Z,20.40
2019-02-15T11:51:22.614Z,20.40
2019-02-15T11:53:55.114Z,20.40
2019-02-15T11:56:29.117Z,20.40
2019-02-15T11:59:01.890Z,20.40
2019-02-15T12:01:35.016Z,20.30
2019-02-15T12:04:07.672Z,20.30
2019-02-15T12:06:40.507Z,20.30
2019-02-15T12:09:13.172Z,20.30
2019-02-15T12:11:46.048Z,20.30
2019-02-15T12:14:18.515Z,20.20
2019-02-15T12:16:51.464Z,20.20
2019-02-15T12:19:24.488Z,20.20
2019-02-15T12:21:57.280Z,20.20
2019-02-15T12:24:30.202Z,20.20
2019-02-15T12:27:02.865Z,20.20
2019-02-15T12:29:35.741Z,20.20
2019-02-15T12:32:08.470Z,20.20
2019-02-15T12:34:42.773Z,20.20
2019-02-15T12:37:17.231Z,20.20
2019-02-15T12:39:50.474Z,20.10
2019-02-15T12:42:23.355Z,20.10
2019-02-15T12:44:56.004Z,20.10
2019-02-15T12:47:28.991Z,20.10
2019-02-15T12:50:01.780Z,20.10
2019-02-15T12:52:34.711Z,20.10
2019-02-15T12:55:07.486Z,20.00
2019-02-15T12:57:40.119Z,20.00
2019-02-15T13:00:17.588Z,20.00
2019-02-15T13:02:50.412Z,20.00
2019-02-15T13:05:23.069Z,20.00
2019-02-15T13:07:55.962Z,20.00
2019-02-15T13:10:30.109Z,19.90
2019-02-15T13:13:03.555Z,19.90
2019-02-15T13:15:36.354Z,19.90
2019-02-15T13:18:09.137Z,19.90
2019-02-15T13:20:42.065Z,19.90
2019-02-15T13:23:14.706Z,19.80
2019-02-15T13:25:48.533Z,19.90
2019-02-15T13:28:22.110Z,19.80
2019-02-15T13:30:55.086Z,19.90
2019-02-15T13:33:27.871Z,19.80
2019-02-15T13:36:00.835Z,19.80
2019-02-15T13:38:33.656Z,19.80
2019-02-15T13:41:06.439Z,19.80
2019-02-15T13:43:39.747Z,19.70
2019-02-15T13:46:12.391Z,19.70
2019-02-15T13:48:45.200Z,19.70
2019-02-15T13:51:18.025Z,19.60
2019-02-15T13:53:50.772Z,19.60
2019-02-15T13:56:24.710Z,19.60
2019-02-15T13:58:57.341Z,19.60
2019-02-15T14:01:30.569Z,19.60
2019-02-15T14:04:03.304Z,19.60
2019-02-15T14:06:36.108Z,19.60
2019-02-15T14:09:09.079Z,19.50
2019-02-15T14:11:41.756Z,19.50
2019-02-15T14:14:14.304Z,19.50
2019-02-15T14:16:48.634Z,19.50
2019-02-15T14:19:21.432Z,19.50
2019-02-15T14:21:54.442Z,19.50
2019-02-15T14:24:27.202Z,19.50
2019-02-15T14:26:59.973Z,19.50
2019-02-15T14:29:32.754Z,19.50
2019-02-15T14:32:05.506Z,19.50
2019-02-15T14:34:38.319Z,19.50
2019-02-15T14:37:11.437Z,19.50
2019-02-15T14:39:44.818Z,19.40
2019-02-15T14:42:17.746Z,19.40
2019-02-15T14:44:50.479Z,19.50
2019-02-15T14:47:23.020Z,19.40
2019-02-15T14:49:55.971Z,19.40
2019-02-15T14:52:28.715Z,19.50
2019-02-15T14:55:01.293Z,19.50
2019-02-15T14:57:33.984Z,19.50
2019-02-15T15:00:07.631Z,19.50
2019-02-15T15:02:40.504Z,19.40
2019-02-15T15:05:15.184Z,19.50
2019-02-15T15:07:48.073Z,19.50
2019-02-15T15:10:20.880Z,19.50
2019-02-15T15:12:53.436Z,19.50
2019-02-15T15:15:26.517Z,19.50
2019-02-15T15:18:10.648Z,19.50
2019-02-15T15:20:33.441Z,19.60
2019-02-15T15:23:06.131Z,19.60
2019-02-15T15:25:39.074Z,19.60
2019-02-15T15:28:11.854Z,19.60
2019-02-15T15:30:44.859Z,19.60
2019-02-15T15:33:17.599Z,19.60
2019-02-15T15:35:50.590Z,19.50
2019-02-15T15:38:23.433Z,19.50
2019-02-15T15:40:56.452Z,19.50
2019-02-15T15:43:29.181Z,19.50
2019-02-15T15:46:01.976Z,19.40
2019-02-15T15:48:34.629Z,19.40
2019-02-15T15:51:07.428Z,19.40
2019-02-15T15:53:40.296Z,19.40
2019-02-15T15:56:13.072Z,19.40
2019-02-15T15:58:45.868Z,19.30
2019-02-15T16:01:18.772Z,19.30
2019-02-15T16:03:52.813Z,19.40
2019-02-15T16:06:25.645Z,19.40
2019-02-15T16:08:58.865Z,19.40
2019-02-15T16:11:32.574Z,19.40
2019-02-15T16:14:05.607Z,19.40
2019-02-15T16:16:38.402Z,19.40
2019-02-15T16:19:11.382Z,19.40
2019-02-15T16:21:44.506Z,19.40
2019-02-15T16:24:17.552Z,19.40
2019-02-15T16:26:50.563Z,19.40
2019-02-15T16:29:23.330Z,19.40
2019-02-15T16:31:56.323Z,19.40
2019-02-15T16:34:29.104Z,19.30
2019-02-15T16:37:02.092Z,19.30
2019-02-15T16:39:34.730Z,19.30
2019-02-15T16:42:07.958Z,19.30
2019-02-15T16:44:40.503Z,19.40
2019-02-15T16:47:13.218Z,19.40
2019-02-15T16:49:45.865Z,19.40
2019-02-15T16:52:18.710Z,19.40
2019-02-15T16:54:51.364Z,19.50
2019-02-15T16:57:24.970Z,19.50
2019-02-15T16:59:57.743Z,19.50
2019-02-15T17:02:30.861Z,19.50
2019-02-15T17:05:03.761Z,19.50
2019-02-15T17:07:36.520Z,19.50
2019-02-15T17:10:10.900Z,19.50
2019-02-15T17:12:43.690Z,19.50
2019-02-15T17:15:17.536Z,19.60
2019-02-15T17:17:50.275Z,19.60
2019-02-15T17:20:23.127Z,19.60
2019-02-15T17:22:55.886Z,19.70
2019-02-15T17:25:28.826Z,19.70
2019-02-15T17:28:01.609Z,19.70
2019-02-15T17:30:34.278Z,19.70
2019-02-15T17:33:07.378Z,19.70
2019-02-15T17:35:40.161Z,19.70
2019-02-15T17:38:13.239Z,19.70
2019-02-15T17:40:46.251Z,19.70
2019-02-15T17:43:19.339Z,19.70
2019-02-15T17:45:52.428Z,19.80
2019-02-15T17:48:25.467Z,19.80
2019-02-15T17:50:58.115Z,19.80
2019-02-15T17:53:30.959Z,19.80
2019-02-15T17:56:03.812Z,19.80
2019-02-15T17:58:36.731Z,19.70
2019-02-15T18:01:09.434Z,19.70
2019-02-15T18:03:42.118Z,19.70
2019-02-15T18:06:14.879Z,19.70
2019-02-15T18:08:48.370Z,19.70
2019-02-15T18:11:21.126Z,19.80
2019-02-15T18:13:53.959Z,19.80
2019-02-15T18:16:26.902Z,19.80
2019-02-15T18:18:59.721Z,19.90
2019-02-15T18:21:32.550Z,19.90
2019-02-15T18:24:05.473Z,20.00
2019-02-15T18:26:38.333Z,20.00
2019-02-15T18:29:10.904Z,20.20
2019-02-15T18:31:44.032Z,20.20
2019-02-15T18:34:16.677Z,20.30
2019-02-15T18:36:49.707Z,20.40
2019-02-15T18:39:22.518Z,20.40
2019-02-15T18:41:55.588Z,20.40
2019-02-15T18:44:28.258Z,20.50
2019-02-15T18:47:01.256Z,20.50
2019-02-15T18:49:34.111Z,20.60
2019-02-15T18:52:06.887Z,20.70
2019-02-15T18:54:40.115Z,20.80
2019-02-15T18:57:12.863Z,20.90
2019-02-15T18:59:45.866Z,21.10
2019-02-15T19:02:18.630Z,21.30
2019-02-15T19:04:51.725Z,21.30
2019-02-15T19:07:24.467Z,21.40
2019-02-15T19:09:57.206Z,21.30
2019-02-15T19:12:30.321Z,21.30
2019-02-15T19:15:04.053Z,21.40
2019-02-15T19:17:37.343Z,21.50
2019-02-15T19:20:12.088Z,21.60
2019-02-15T19:22:45.075Z,21.80
2019-02-15T19:25:18.623Z,21.90
2019-02-15T19:27:51.556Z,22.10
2019-02-15T19:30:35.080Z,22.20
2019-02-15T19:33:07.976Z,22.30
2019-02-15T19:35:40.791Z,22.30
2019-02-15T19:38:13.836Z,22.40
2019-02-15T19:40:46.394Z,22.50
2019-02-15T19:43:19.118Z,22.60
2019-02-15T19:45:52.703Z,22.70
2019-02-15T19:48:25.518Z,22.90
2019-02-15T19:50:58.491Z,23.00
2019-02-15T19:53:31.268Z,23.20
2019-02-15T19:56:04.353Z,23.40
2019-02-15T19:58:37.037Z,23.60
2019-02-15T20:01:10.611Z,23.80
2019-02-15T20:03:43.844Z,24.00
2019-02-15T20:06:17.025Z,24.20
2019-02-15T20:08:50.625Z,24.40
2019-02-15T20:11:24.052Z,24.60
2019-02-15T20:13:56.556Z,24.80
2019-02-15T20:16:29.361Z,24.90
2019-02-15T20:19:02.411Z,25.00
2019-02-15T20:21:35.149Z,25.00
2019-02-15T20:24:08.132Z,24.90
2019-02-15T20:26:41.032Z,25.10
2019-02-15T20:29:13.716Z,25.10
2019-02-15T20:31:46.504Z,25.10
2019-02-15T20:34:19.275Z,24.90
2019-02-15T20:36:52.249Z,24.70
2019-02-15T20:39:25.029Z,24.50
2019-02-15T20:41:57.944Z,24.60
2019-02-15T20:44:31.836Z,24.60
2019-02-15T20:47:04.821Z,25.10
2019-02-15T20:49:37.537Z,25.40
2019-02-15T20:52:10.570Z,25.40
2019-02-15T20:54:43.455Z,25.50
2019-02-15T20:57:16.558Z,25.90
2019-02-15T20:59:49.344Z,26.20
2019-02-15T21:02:22.105Z,26.70
2019-02-15T21:04:55.043Z,27.00
2019-02-15T21:07:27.882Z,27.00
2019-02-15T21:10:00.868Z,27.20
2019-02-15T21:12:33.652Z,27.10
2019-02-15T21:15:07.219Z,26.90
2019-02-15T21:17:39.896Z,26.80
2019-02-15T21:20:14.253Z,26.80
2019-02-15T21:22:47.248Z,26.40
2019-02-15T21:25:21.533Z,27.00
2019-02-15T21:27:54.237Z,27.60
2019-02-15T21:30:27.499Z,27.80
2019-02-15T21:33:00.198Z,28.20
2019-02-15T21:35:33.095Z,28.50
2019-02-15T21:38:06.066Z,29.00
2019-02-15T21:40:39.087Z,29.30
2019-02-15T21:43:11.881Z,29.40
2019-02-15T21:45:45.367Z,29.70
2019-02-15T21:48:18.122Z,30.10
2019-02-15T21:50:51.652Z,30.30
2019-02-15T21:53:24.292Z,30.80
2019-02-15T21:55:57.882Z,31.00
2019-02-15T21:58:32.565Z,31.20
2019-02-15T22:01:06.313Z,31.30
2019-02-15T22:03:39.142Z,31.40
2019-02-15T22:06:12.169Z,31.30
2019-02-15T22:08:45.092Z,31.30
2019-02-15T22:11:17.926Z,31.50
2019-02-15T22:13:50.409Z,31.80
2019-02-15T22:16:23.212Z,32.10
2019-02-15T22:18:56.005Z,32.30
2019-02-15T22:21:28.911Z,32.40
2019-02-15T22:24:01.719Z,32.50
2019-02-15T22:26:34.969Z,32.70
2019-02-15T22:29:07.967Z,32.20
2019-02-15T22:31:40.730Z,32.70
2019-02-15T22:34:14.736Z,32.80
2019-02-15T22:36:47.541Z,32.90
2019-02-15T22:39:20.367Z,33.30
2019-02-15T22:41:53.099Z,33.60
2019-02-15T22:44:26.892Z,33.90
2019-02-15T22:47:00.497Z,34.30
2019-02-15T22:49:42.915Z,34.40
2019-02-15T22:52:07.501Z,34.40
2019-02-15T22:54:40.299Z,34.30
2019-02-15T22:57:13.151Z,34.10
2019-02-15T22:59:45.710Z,34.70
2019-02-15T23:02:18.883Z,35.10
2019-02-15T23:04:51.624Z,35.20
2019-02-15T23:07:24.590Z,35.30
2019-02-15T23:09:57.805Z,35.30
2019-02-15T23:12:30.690Z,35.80
2019-02-15T23:15:03.656Z,36.00
2019-02-15T23:17:36.793Z,35.90
2019-02-15T23:20:10.188Z,35.60
2019-02-15T23:22:42.922Z,35.80
2019-02-15T23:25:15.859Z,35.00
2019-02-15T23:27:48.533Z,35.40
2019-02-15T23:30:21.695Z,35.30
2019-02-15T23:32:55.018Z,35.20
2019-02-15T23:35:27.691Z,34.90
2019-02-15T23:38:00.867Z,34.90
2019-02-15T23:40:33.859Z,34.80
2019-02-15T23:43:06.831Z,35.30
2019-02-15T23:45:39.491Z,35.70
2019-02-15T23:48:14.061Z,35.90
2019-02-15T23:50:54.416Z,36.10
2019-02-15T23:53:20.812Z,35.90
2019-02-15T23:55:54.205Z,36.00
2019-02-15T23:58:26.861Z,36.00
